createdAt,value
2019-02-07T00:04:40.427Z,98307.94
2019-02-07T00:09:45.488Z,98311.67
2019-02-07T00:14:51.350Z,98303.86
2019-02-07T00:19:56.201Z,98300.72
2019-02-07T00:25:01.047Z,98304.84
2019-02-07T00:30:13.026Z,98306.40
2019-02-07T00:35:17.588Z,98307.70
2019-02-07T00:40:22.143Z,98311.20
2019-02-07T00:45:26.728Z,98310.22
2019-02-07T00:50:31.412Z,98299.18
2019-02-07T00:55:36.051Z,98300.98
2019-02-07T01:00:40.614Z,98303.60
2019-02-07T01:05:45.229Z,98302.47
2019-02-07T01:10:50.865Z,98294.36
2019-02-07T01:15:55.639Z,98290.59
2019-02-07T01:21:00.274Z,98291.34
2019-02-07T01:26:05.016Z,98282.47
2019-02-07T01:31:11.194Z,98282.48
2019-02-07T01:36:15.937Z,98280.77
2019-02-07T01:41:20.680Z,98287.15
2019-02-07T01:46:25.426Z,98287.94
2019-02-07T01:51:30.171Z,98285.92
2019-02-07T01:56:35.116Z,98281.67
2019-02-07T02:01:39.859Z,98271.87
2019-02-07T02:06:44.350Z,98266.37
2019-02-07T02:11:49.036Z,98271.94
2019-02-07T02:16:53.771Z,98271.15
2019-02-07T02:21:58.623Z,98256.85
2019-02-07T02:27:03.250Z,98262.70
2019-02-07T02:32:08.118Z,98258.61
2019-02-07T02:37:12.751Z,98268.49
2019-02-07T02:42:17.374Z,98272.89
2019-02-07T02:47:22.019Z,98264.97
2019-02-07T02:52:26.772Z,98270.48
2019-02-07T02:57:31.807Z,98272.28
2019-02-07T03:02:37.993Z,98281.59
2019-02-07T03:08:01.358Z,98278.89
2019-02-07T03:13:13.593Z,98278.94
2019-02-07T03:18:25.499Z,98280.03
2019-02-07T03:23:48.168Z,98289.50
2019-02-07T03:29:11.036Z,98288.56
2019-02-07T03:34:17.613Z,98284.80
2019-02-07T03:39:26.753Z,98295.27
2019-02-07T03:44:48.816Z,98302.98
2019-02-07T03:50:01.382Z,98312.98
2019-02-07T03:55:20.616Z,98308.78
2019-02-07T04:00:29.474Z,98301.95
2019-02-07T04:05:44.858Z,98297.88
2019-02-07T04:10:55.434Z,98297.41
2019-02-07T04:16:12.962Z,98294.33
2019-02-07T04:21:12.601Z,98288.52
2019-02-07T04:26:22.161Z,98289.51
2019-02-07T04:31:28.702Z,98285.09
2019-02-07T04:36:38.606Z,98291.73
2019-02-07T04:42:01.373Z,98300.33
2019-02-07T04:47:10.727Z,98294.84
2019-02-07T04:52:17.658Z,98291.51
2019-02-07T04:57:42.385Z,98289.61
2019-02-07T05:03:03.763Z,98290.50
2019-02-07T05:08:12.855Z,98295.75
2019-02-07T05:13:22.067Z,98300.64
2019-02-07T05:18:40.674Z,98302.98
2019-02-07T05:23:58.690Z,98306.51
2019-02-07T05:29:08.011Z,98305.95
2019-02-07T05:34:29.345Z,98305.67
2019-02-07T05:39:38.396Z,98296.11
2019-02-07T05:44:56.448Z,98298.20
2019-02-07T05:50:05.382Z,98294.30
2019-02-07T05:55:21.307Z,98299.65
2019-02-07T06:00:36.790Z,98300.55
2019-02-07T06:05:52.087Z,98299.97
2019-02-07T06:11:01.433Z,98306.50
2019-02-07T06:16:08.420Z,98298.80
2019-02-07T06:21:20.851Z,98299.77
2019-02-07T06:26:33.269Z,98293.26
2019-02-07T06:31:42.522Z,98300.92
2019-02-07T06:36:52.046Z,98304.91
2019-02-07T06:42:04.403Z,98310.59
2019-02-07T06:47:16.920Z,98318.53
2019-02-07T06:52:38.357Z,98319.33
2019-02-07T06:57:59.880Z,98316.45
2019-02-07T07:03:21.120Z,98319.41
2019-02-07T07:08:27.286Z,98321.01
2019-02-07T07:13:39.587Z,98316.02
2019-02-07T07:19:02.167Z,98313.09
2019-02-07T07:24:14.600Z,98317.67
2019-02-07T07:29:37.262Z,98315.12
2019-02-07T07:34:52.544Z,98321.50
2019-02-07T07:39:58.940Z,98328.86
2019-02-07T07:45:08.285Z,98328.89
2019-02-07T07:50:17.432Z,98339.30
2019-02-07T07:55:41.835Z,98334.98
2019-02-07T08:00:53.846Z,98335.42
2019-02-07T08:06:16.616Z,98325.27
2019-02-07T08:11:23.000Z,98328.92
2019-02-07T08:16:32.230Z,98342.02
2019-02-07T08:21:38.527Z,98333.85
2019-02-07T08:27:00.465Z,98329.80
2019-02-07T08:32:12.888Z,98332.23
2019-02-07T08:37:19.166Z,98334.27
2019-02-07T08:42:31.592Z,98327.89
2019-02-07T08:47:58.623Z,98324.80
2019-02-07T08:53:06.981Z,98334.12
2019-02-07T08:58:22.271Z,98336.98
2019-02-07T09:03:38.893Z,98338.19
2019-02-07T09:08:50.906Z,98335.70
2019-02-07T09:13:57.290Z,98334.11
2019-02-07T09:19:12.567Z,98339.20
2019-02-07T09:24:24.901Z,98329.97
2019-02-07T09:29:37.013Z,98337.06
2019-02-07T09:34:59.537Z,98331.91
2019-02-07T09:40:23.873Z,98336.55
2019-02-07T09:45:46.731Z,98334.98
2019-02-07T09:51:11.043Z,98329.27
2019-02-07T09:56:17.828Z,98326.06
2019-02-07T10:01:24.003Z,98317.63
2019-02-07T10:06:30.389Z,98307.95
2019-02-07T10:11:36.885Z,98309.24
2019-02-07T10:16:51.958Z,98308.49
2019-02-07T10:21:58.240Z,98289.52
2019-02-07T10:27:20.904Z,98293.61
2019-02-07T10:32:39.567Z,98282.98
2019-02-07T10:37:46.063Z,98286.99
2019-02-07T10:43:09.030Z,98281.56
2019-02-07T10:48:15.208Z,98275.84
2019-02-07T10:53:27.313Z,98269.94
2019-02-07T10:58:46.495Z,98263.08
2019-02-07T11:03:53.040Z,98252.55
2019-02-07T11:08:59.766Z,98251.77
2019-02-07T11:14:08.628Z,98249.02
2019-02-07T11:19:21.465Z,98234.66
2019-02-07T11:24:24.034Z,98230.16
2019-02-07T11:29:34.511Z,98221.19
2019-02-07T11:34:50.213Z,98226.83
2019-02-07T11:40:11.643Z,98225.34
2019-02-07T11:45:30.927Z,98224.67
2019-02-07T11:50:54.205Z,98214.72
2019-02-07T11:56:03.350Z,98217.52
2019-02-07T12:01:12.600Z,98206.25
2019-02-07T12:06:18.979Z,98211.34
2019-02-07T12:11:41.744Z,98205.23
2019-02-07T12:17:00.413Z,98215.20
2019-02-07T12:22:16.017Z,98207.12
2019-02-07T12:27:25.732Z,98202.33
2019-02-07T12:32:32.263Z,98195.58
2019-02-07T12:37:38.687Z,98189.19
2019-02-07T12:43:02.835Z,98184.92
2019-02-07T12:48:25.705Z,98186.52
2019-02-07T12:53:35.975Z,98181.45
2019-02-07T12:58:59.253Z,98181.91
2019-02-07T13:04:22.242Z,98176.94
2019-02-07T13:09:37.512Z,98174.34
2019-02-07T13:14:43.792Z,98167.63
2019-02-07T13:20:04.140Z,98165.84
2019-02-07T13:25:23.813Z,98166.83
2019-02-07T13:30:30.274Z,98169.19
2019-02-07T13:35:54.781Z,98166.41
2019-02-07T13:41:16.535Z,98162.38
2019-02-07T13:46:32.750Z,98161.66
2019-02-07T13:51:48.749Z,98162.70
2019-02-07T13:57:10.494Z,98163.77
2019-02-07T14:02:19.626Z,98162.72
2019-02-07T14:07:32.050Z,98165.64
2019-02-07T14:12:47.243Z,98159.56
2019-02-07T14:18:03.143Z,98163.03
2019-02-07T14:23:15.057Z,98171.34
2019-02-07T14:28:24.404Z,98174.38
2019-02-07T14:33:45.944Z,98170.34
2019-02-07T14:38:58.058Z,98168.20
2019-02-07T14:44:20.413Z,98166.66
2019-02-07T14:49:25.152Z,98165.88
2019-02-07T14:54:30.306Z,98164.27
2019-02-07T14:59:35.052Z,98168.27
2019-02-07T15:04:39.896Z,98166.77
2019-02-07T15:09:44.632Z,98171.64
2019-02-07T15:14:49.383Z,98161.17
2019-02-07T15:19:54.224Z,98162.41
2019-02-07T15:24:59.097Z,98154.98
2019-02-07T15:30:06.730Z,98151.09
2019-02-07T15:35:33.130Z,98151.37
2019-02-07T15:40:38.080Z,98147.55
2019-02-07T15:45:43.031Z,98150.45
2019-02-07T15:50:47.765Z,98143.43
2019-02-07T15:55:52.515Z,98148.36
2019-02-07T16:00:58.892Z,98144.83
2019-02-07T16:06:06.233Z,98147.84
2019-02-07T16:11:09.926Z,98142.66
2019-02-07T16:16:15.171Z,98145.99
2019-02-07T16:21:19.908Z,98147.11
2019-02-07T16:26:25.683Z,98143.77
2019-02-07T16:31:30.424Z,98145.98
2019-02-07T16:36:35.163Z,98141.89
2019-02-07T16:41:40.007Z,98143.95
2019-02-07T16:46:44.930Z,98143.28
2019-02-07T16:51:49.707Z,98142.14
2019-02-07T16:56:54.558Z,98139.98
2019-02-07T17:01:59.301Z,98132.89
2019-02-07T17:07:04.105Z,98140.80
2019-02-07T17:12:09.078Z,98137.91
2019-02-07T17:17:14.744Z,98144.33
2019-02-07T17:22:19.485Z,98143.71
2019-02-07T17:27:24.640Z,98141.91
2019-02-07T17:32:31.019Z,98140.35
2019-02-07T17:37:36.212Z,98142.78
2019-02-07T17:42:41.021Z,98140.69
2019-02-07T17:47:45.760Z,98140.41
2019-02-07T17:52:50.543Z,98147.00
2019-02-07T17:57:56.260Z,98153.77
2019-02-07T18:03:01.439Z,98152.78
2019-02-07T18:08:06.286Z,98153.80
2019-02-07T18:13:12.356Z,98147.80
2019-02-07T18:18:16.977Z,98152.81
2019-02-07T18:23:21.723Z,98157.56
2019-02-07T18:28:26.874Z,98158.48
2019-02-07T18:33:31.930Z,98162.86
2019-02-07T18:38:38.209Z,98158.73
2019-02-07T18:43:42.843Z,98153.38
2019-02-07T18:48:47.493Z,98155.05
2019-02-07T18:53:53.118Z,98151.56
2019-02-07T18:58:58.472Z,98151.12
2019-02-07T19:04:05.203Z,98147.07
2019-02-07T19:09:10.791Z,98144.57
2019-02-07T19:14:16.103Z,98139.41
2019-02-07T19:19:22.778Z,98139.58
2019-02-07T19:24:27.990Z,98134.19
2019-02-07T19:29:33.232Z,98129.70
2019-02-07T19:34:39.087Z,98125.33
2019-02-07T19:39:46.247Z,98121.91
2019-02-07T19:44:52.358Z,98117.11
2019-02-07T19:49:58.329Z,98109.33
2019-02-07T19:55:06.303Z,98113.31
2019-02-07T20:00:13.898Z,98107.73
2019-02-07T20:05:19.902Z,98098.98
2019-02-07T20:10:26.428Z,98091.61
2019-02-07T20:15:33.506Z,98094.34
2019-02-07T20:20:39.037Z,98097.30
2019-02-07T20:25:43.761Z,98093.94
2019-02-07T20:35:54.247Z,98087.45
2019-02-07T20:41:00.003Z,98083.34
2019-02-07T20:46:04.831Z,98079.80
2019-02-07T20:51:09.672Z,98075.88
2019-02-07T20:56:14.844Z,98071.97
2019-02-07T21:01:22.322Z,98071.21
2019-02-07T21:06:28.313Z,98070.98
2019-02-07T21:11:35.021Z,98062.63
2019-02-07T21:16:43.892Z,98061.69
2019-02-07T21:21:50.386Z,98055.91
2019-02-07T21:26:55.058Z,98061.09
2019-02-07T21:31:59.910Z,98056.34
2019-02-07T21:37:06.100Z,98050.44
2019-02-07T21:42:11.641Z,98047.10
2019-02-07T21:47:18.433Z,98046.62
2019-02-07T21:52:23.379Z,98041.54
2019-02-07T21:57:28.332Z,98039.33
2019-02-07T22:02:34.094Z,98045.05
2019-02-07T22:07:39.044Z,98045.14
2019-02-07T22:12:45.614Z,98043.73
2019-02-07T22:17:50.484Z,98040.55
2019-02-07T22:22:55.304Z,98043.73
2019-02-07T22:28:01.136Z,98041.06
2019-02-07T22:33:07.990Z,98044.19
2019-02-07T22:38:12.754Z,98047.18
2019-02-07T22:43:17.672Z,98038.03
2019-02-07T22:48:22.510Z,98036.77
2019-02-07T22:53:27.258Z,98035.75
2019-02-07T22:58:34.192Z,98031.80
2019-02-07T23:03:38.896Z,98039.61
2019-02-07T23:08:45.579Z,98036.59
2019-02-07T23:13:50.451Z,98027.19
2019-02-07T23:18:56.208Z,98027.04
2019-02-07T23:24:02.676Z,98025.02
2019-02-07T23:29:07.931Z,98018.53
2019-02-07T23:34:12.775Z,98017.50
2019-02-07T23:39:17.427Z,98012.92
2019-02-07T23:44:22.572Z,98014.56
2019-02-07T23:49:27.924Z,98010.27
2019-02-07T23:54:32.561Z,98003.89
2019-02-07T23:59:37.720Z,98001.16
